createdAt,value
2022-08-20T00:00:31.500Z,86.82
2022-08-20T00:03:01.169Z,86.57
2022-08-20T00:05:31.657Z,87.30
2022-08-20T00:07:59.311Z,87.47
2022-08-20T00:10:28.866Z,87.53
2022-08-20T00:12:56.121Z,87.75
2022-08-20T00:15:26.278Z,87.13
2022-08-20T00:17:53.445Z,87.20
2022-08-20T00:20:23.251Z,87.16
2022-08-20T00:22:50.073Z,87.22
2022-08-20T00:25:17.137Z,87.08
2022-08-20T00:27:43.602Z,87.41
2022-08-20T00:30:13.240Z,87.49
2022-08-20T00:32:43.826Z,87.85
2022-08-20T00:35:13.056Z,87.53
2022-08-20T00:37:40.026Z,87.39
2022-08-20T00:40:22.683Z,87.00
2022-08-20T00:42:58.154Z,86.59
2022-08-20T00:45:27.584Z,86.67
2022-08-20T00:47:56.967Z,86.29
2022-08-20T00:50:29.425Z,86.12
2022-08-20T00:52:56.271Z,86.16
2022-08-20T00:55:31.545Z,85.96
2022-08-20T00:58:03.043Z,85.44
2022-08-20T01:00:34.286Z,86.29
2022-08-20T01:03:01.612Z,85.84
2022-08-20T01:05:29.924Z,85.85
2022-08-20T01:07:57.508Z,85.88
2022-08-20T01:10:27.702Z,86.13
2022-08-20T01:12:59.651Z,86.47
2022-08-20T01:15:41.248Z,87.71
2022-08-20T01:18:19.409Z,88.78
2022-08-20T01:20:54.239Z,89.60
2022-08-20T01:23:41.926Z,90.35
2022-08-20T01:26:13.308Z,90.45
2022-08-20T01:28:54.533Z,91.54
2022-08-20T01:31:25.586Z,92.95
2022-08-20T01:33:54.200Z,93.91
2022-08-20T01:36:26.755Z,94.49
2022-08-20T01:38:54.952Z,95.56
2022-08-20T01:41:43.847Z,95.15
2022-08-20T01:44:16.758Z,96.88
2022-08-20T01:46:46.646Z,96.75
2022-08-20T01:49:23.352Z,97.43
2022-08-20T01:51:51.954Z,96.50
2022-08-20T01:54:19.540Z,96.80
2022-08-20T01:57:03.680Z,96.92
2022-08-20T01:59:31.099Z,97.72
2022-08-20T02:02:00.406Z,97.08
2022-08-20T02:04:27.190Z,97.30
2022-08-20T02:06:57.997Z,97.70
2022-08-20T02:09:33.786Z,98.00
2022-08-20T02:12:02.386Z,98.53
2022-08-20T02:14:29.840Z,98.46
2022-08-20T02:16:58.406Z,97.70
2022-08-20T02:19:35.422Z,98.28
2022-08-20T02:22:09.291Z,98.00
2022-08-20T02:24:35.762Z,98.01
2022-08-20T02:27:02.260Z,97.43
2022-08-20T02:29:28.680Z,98.29
2022-08-20T02:32:32.026Z,97.17
2022-08-20T02:34:41.938Z,98.46
2022-08-20T02:37:09.527Z,98.71
2022-08-20T02:39:36.345Z,97.82
2022-08-20T02:42:04.534Z,98.30
2022-08-20T02:44:31.619Z,97.13
2022-08-20T02:46:58.488Z,97.63
2022-08-20T02:49:24.966Z,97.44
2022-08-20T02:51:51.794Z,97.40
2022-08-20T02:54:18.477Z,97.26
2022-08-20T02:56:45.229Z,97.31
2022-08-20T02:59:19.027Z,97.74
2022-08-20T03:01:46.712Z,97.63
2022-08-20T03:04:26.131Z,96.89
2022-08-20T03:06:52.876Z,97.64
2022-08-20T03:09:19.299Z,97.65
2022-08-20T03:11:45.689Z,97.75
2022-08-20T03:14:12.111Z,97.64
2022-08-20T03:16:38.521Z,97.36
2022-08-20T03:19:04.969Z,97.77
2022-08-20T03:21:32.459Z,98.31
2022-08-20T03:23:58.981Z,97.41
2022-08-20T03:26:25.632Z,96.78
2022-08-20T03:28:52.185Z,98.14
2022-08-20T03:31:18.949Z,98.58
2022-08-20T03:33:52.805Z,98.13
2022-08-20T03:36:27.760Z,98.46
2022-08-20T03:38:57.881Z,98.36
2022-08-20T03:41:24.761Z,98.93
2022-08-20T03:43:51.654Z,98.25
2022-08-20T03:46:23.297Z,98.32
2022-08-20T03:48:59.567Z,98.56
2022-08-20T03:51:27.719Z,98.83
2022-08-20T03:53:54.110Z,98.61
2022-08-20T03:56:20.532Z,98.82
2022-08-20T03:58:46.954Z,98.52
2022-08-20T04:01:45.030Z,98.23
2022-08-20T04:04:00.687Z,98.15
2022-08-20T04:06:29.159Z,98.90
2022-08-20T04:08:56.325Z,98.40
2022-08-20T04:11:23.744Z,99.18
2022-08-20T04:13:50.467Z,98.89
2022-08-20T04:16:18.113Z,98.91
2022-08-20T04:18:58.619Z,98.83
2022-08-20T04:21:33.316Z,99.18
2022-08-20T04:24:04.840Z,98.94
2022-08-20T04:26:32.941Z,98.76
2022-08-20T04:28:59.612Z,98.71
2022-08-20T04:31:32.859Z,98.46
2022-08-20T04:34:01.331Z,98.83
2022-08-20T04:36:27.796Z,98.38
2022-08-20T04:38:54.229Z,98.67
2022-08-20T04:41:23.561Z,98.44
2022-08-20T04:43:52.174Z,98.78
2022-08-20T04:46:19.277Z,98.14
2022-08-20T04:48:49.075Z,98.60
2022-08-20T04:51:17.944Z,98.83
2022-08-20T04:53:50.358Z,98.80
2022-08-20T04:56:23.231Z,98.74
2022-08-20T04:58:49.932Z,98.71
2022-08-20T05:01:17.027Z,98.98
2022-08-20T05:03:43.619Z,98.72
2022-08-20T05:06:12.237Z,98.58
2022-08-20T05:08:39.672Z,98.90
2022-08-20T05:11:33.715Z,98.66
2022-08-20T05:13:53.994Z,98.23
2022-08-20T05:16:21.350Z,98.00
2022-08-20T05:18:52.284Z,97.86
2022-08-20T05:21:20.116Z,98.18
2022-08-20T05:23:46.941Z,98.27
2022-08-20T05:26:15.862Z,98.50
2022-08-20T05:28:54.040Z,97.95
2022-08-20T05:31:30.990Z,98.30
2022-08-20T05:34:09.447Z,98.38
2022-08-20T05:36:39.720Z,97.93
2022-08-20T05:39:06.229Z,98.21
2022-08-20T05:41:33.350Z,98.24
2022-08-20T05:44:01.373Z,98.27
2022-08-20T05:46:29.510Z,98.55
2022-08-20T05:48:56.143Z,98.17
2022-08-20T05:51:26.400Z,98.19
2022-08-20T05:53:52.913Z,98.68
2022-08-20T05:56:19.356Z,97.89
2022-08-20T05:58:53.413Z,97.83
2022-08-20T06:01:19.903Z,97.82
2022-08-20T06:04:05.226Z,98.26
2022-08-20T06:06:45.202Z,97.85
2022-08-20T06:09:13.724Z,98.27
2022-08-20T06:11:40.155Z,97.72
2022-08-20T06:14:06.561Z,97.67
2022-08-20T06:16:33.627Z,97.34
2022-08-20T06:19:02.743Z,96.67
2022-08-20T06:21:29.591Z,96.80
2022-08-20T06:23:58.479Z,96.27
2022-08-20T06:26:30.308Z,96.67
2022-08-20T06:28:58.591Z,96.16
2022-08-20T06:31:25.296Z,95.64
2022-08-20T06:33:51.715Z,96.69
2022-08-20T06:36:19.091Z,95.22
2022-08-20T06:38:46.219Z,93.43
2022-08-20T06:41:12.757Z,94.13
2022-08-20T06:43:39.150Z,91.88
2022-08-20T06:46:06.816Z,93.46
2022-08-20T06:48:33.890Z,91.80
2022-08-20T06:51:00.252Z,90.25
2022-08-20T06:53:26.636Z,93.59
2022-08-20T06:55:55.591Z,92.85
2022-08-20T06:58:36.247Z,92.50
2022-08-20T07:01:10.600Z,92.61
2022-08-20T07:03:39.266Z,92.10
2022-08-20T07:06:09.460Z,90.80
2022-08-20T07:08:35.922Z,92.75
2022-08-20T07:11:02.358Z,92.63
2022-08-20T07:13:28.930Z,91.01
2022-08-20T07:15:56.126Z,90.82
2022-08-20T07:18:28.079Z,90.32
2022-08-20T07:20:57.372Z,88.03
2022-08-20T07:23:25.758Z,88.20
2022-08-20T07:25:52.935Z,87.35
2022-08-20T07:28:23.054Z,87.48
2022-08-20T07:31:13.832Z,86.61
2022-08-20T07:33:44.312Z,87.71
2022-08-20T07:36:12.753Z,85.41
2022-08-20T07:38:39.330Z,86.53
2022-08-20T07:41:08.561Z,85.30
2022-08-20T07:43:34.984Z,86.85
2022-08-20T07:46:07.338Z,86.48
2022-08-20T07:48:35.104Z,85.37
2022-08-20T07:51:06.359Z,84.35
2022-08-20T07:53:35.917Z,85.06
2022-08-20T07:56:09.611Z,86.26
2022-08-20T07:58:43.495Z,84.38
2022-08-20T08:01:11.328Z,81.23
2022-08-20T08:03:41.113Z,80.91
2022-08-20T08:06:29.554Z,79.66
2022-08-20T08:09:13.124Z,84.82
2022-08-20T08:11:47.199Z,78.65
2022-08-20T08:14:19.595Z,81.37
2022-08-20T08:16:51.184Z,79.96
2022-08-20T08:20:13.505Z,81.01
2022-08-20T08:22:57.941Z,75.60
2022-08-20T08:25:25.967Z,76.17
2022-08-20T08:28:09.364Z,76.53
2022-08-20T08:30:36.173Z,76.11
2022-08-20T08:33:24.465Z,73.82
2022-08-20T08:43:13.815Z,83.32
2022-08-20T08:46:08.879Z,78.31
2022-08-20T08:49:23.035Z,78.44
2022-08-20T08:52:55.122Z,83.94
2022-08-20T08:56:03.466Z,79.64
2022-08-20T08:58:38.476Z,71.52
2022-08-20T09:01:54.153Z,75.77
2022-08-20T09:15:13.591Z,67.17
2022-08-20T09:17:41.366Z,69.29
2022-08-20T09:20:10.909Z,68.94
2022-08-20T09:22:37.583Z,67.14
2022-08-20T09:25:05.119Z,67.23
2022-08-20T09:27:32.043Z,65.54
2022-08-20T09:29:58.728Z,68.71
2022-08-20T09:32:26.039Z,65.89
2022-08-20T09:34:58.812Z,63.68
2022-08-20T09:37:29.858Z,62.41
2022-08-20T09:39:58.287Z,62.01
2022-08-20T09:42:28.150Z,62.98
2022-08-20T09:44:55.421Z,60.79
2022-08-20T09:47:22.213Z,58.48
2022-08-20T09:49:49.110Z,59.12
2022-08-20T09:52:24.481Z,59.77
2022-08-20T09:54:55.271Z,57.76
2022-08-20T09:57:22.420Z,57.04
2022-08-20T09:59:54.689Z,55.67
2022-08-20T10:02:21.255Z,53.97
2022-08-20T10:04:47.902Z,52.22
2022-08-20T10:07:15.879Z,51.55
2022-08-20T10:09:42.739Z,50.33
2022-08-20T10:12:09.364Z,51.28
2022-08-20T10:14:35.914Z,49.54
2022-08-20T10:17:03.847Z,52.62
2022-08-20T10:19:31.338Z,50.81
2022-08-20T10:21:59.014Z,51.57
2022-08-20T10:24:26.527Z,50.98
2022-08-20T10:26:58.655Z,50.25
2022-08-20T10:29:26.944Z,50.34
2022-08-20T10:31:56.928Z,49.27
2022-08-20T10:34:24.825Z,48.44
2022-08-20T10:36:51.837Z,49.58
2022-08-20T10:39:18.322Z,51.55
2022-08-20T10:41:44.871Z,50.56
2022-08-20T10:44:11.388Z,45.88
2022-08-20T10:46:38.237Z,46.57
2022-08-20T10:49:05.130Z,48.35
2022-08-20T10:51:32.544Z,48.03
2022-08-20T10:53:59.701Z,50.48
2022-08-20T10:56:26.163Z,47.24
2022-08-20T10:58:52.668Z,48.29
2022-08-20T11:01:31.249Z,47.61
2022-08-20T11:03:59.859Z,47.77
2022-08-20T11:06:26.415Z,49.29
2022-08-20T11:08:53.008Z,46.68
2022-08-20T11:11:19.465Z,46.65
2022-08-20T11:13:45.998Z,48.35
2022-08-20T11:16:12.536Z,47.74
2022-08-20T11:18:40.182Z,47.46
2022-08-20T11:21:08.816Z,47.07
2022-08-20T11:23:35.425Z,46.43
2022-08-20T11:26:01.927Z,48.43
2022-08-20T11:28:32.282Z,45.09
2022-08-20T11:31:00.330Z,47.24
2022-08-20T11:33:26.884Z,46.09
2022-08-20T11:35:53.518Z,46.31
2022-08-20T11:38:20.073Z,43.98
2022-08-20T11:40:47.348Z,43.74
2022-08-20T11:43:15.988Z,44.85
2022-08-20T11:45:46.288Z,45.81
2022-08-20T11:48:13.232Z,44.57
2022-08-20T11:50:39.762Z,45.38
2022-08-20T11:53:06.221Z,44.89
2022-08-20T11:55:35.003Z,44.81
2022-08-20T11:58:01.657Z,44.46
2022-08-20T12:00:33.011Z,45.90
2022-08-20T12:03:09.204Z,46.57
2022-08-20T12:05:37.344Z,45.68
2022-08-20T12:08:05.071Z,44.73
2022-08-20T12:10:31.990Z,46.87
2022-08-20T12:12:58.980Z,44.51
2022-08-20T12:15:27.479Z,43.75
2022-08-20T12:17:54.810Z,44.74
2022-08-20T12:20:22.833Z,44.88
2022-08-20T12:22:49.281Z,44.89
2022-08-20T12:25:15.756Z,44.74
2022-08-20T12:27:42.821Z,45.45
2022-08-20T12:30:15.915Z,46.20
2022-08-20T12:32:42.573Z,44.81
2022-08-20T12:35:11.440Z,47.15
2022-08-20T12:37:38.643Z,46.06
2022-08-20T12:40:10.746Z,46.50
2022-08-20T12:42:37.349Z,45.72
2022-08-20T12:45:04.247Z,46.58
2022-08-20T12:47:34.277Z,45.63
2022-08-20T12:50:05.827Z,47.98
2022-08-20T12:52:32.879Z,46.34
2022-08-20T12:55:00.666Z,46.37
2022-08-20T12:57:30.406Z,47.08
2022-08-20T13:00:03.750Z,47.19
2022-08-20T13:02:31.375Z,44.81
2022-08-20T13:05:02.500Z,43.45
2022-08-20T13:07:32.264Z,46.21
2022-08-20T13:09:59.527Z,46.34
2022-08-20T13:12:26.289Z,45.54
2022-08-20T13:14:52.716Z,46.37
2022-08-20T13:17:19.671Z,46.96
2022-08-20T13:19:53.850Z,46.78
2022-08-20T13:22:20.358Z,47.77
2022-08-20T13:24:46.899Z,47.23
2022-08-20T13:27:17.652Z,45.36
2022-08-20T13:29:49.836Z,47.92
2022-08-20T13:32:17.091Z,48.43
2022-08-20T13:34:45.441Z,48.25
2022-08-20T13:37:25.562Z,49.25
2022-08-20T13:39:53.092Z,47.82
2022-08-20T13:42:20.379Z,47.38
2022-08-20T13:44:47.125Z,48.75
2022-08-20T13:47:28.097Z,49.48
2022-08-20T13:50:00.496Z,48.34
2022-08-20T13:52:27.791Z,48.54
2022-08-20T13:54:54.677Z,48.36
2022-08-20T13:57:23.442Z,49.03
2022-08-20T13:59:51.962Z,48.39
2022-08-20T14:02:19.710Z,47.81
2022-08-20T14:04:48.014Z,46.33
2022-08-20T14:07:18.479Z,45.79
2022-08-20T14:09:48.375Z,45.22
2022-08-20T14:12:16.666Z,46.71
2022-08-20T14:14:43.861Z,46.89
2022-08-20T14:17:14.356Z,47.08
2022-08-20T14:19:41.681Z,47.47
2022-08-20T14:22:08.104Z,44.60
2022-08-20T14:24:35.780Z,45.62
2022-08-20T14:27:07.357Z,45.29
2022-08-20T14:29:36.033Z,44.63
2022-08-20T14:32:04.591Z,45.14
2022-08-20T14:34:31.988Z,45.48
2022-08-20T14:37:23.526Z,46.16
2022-08-20T14:39:52.895Z,45.71
2022-08-20T14:42:22.763Z,46.98
2022-08-20T14:44:50.891Z,48.11
2022-08-20T14:47:23.832Z,48.67
2022-08-20T14:49:53.094Z,48.52
2022-08-20T14:52:21.734Z,48.90
2022-08-20T14:54:49.478Z,49.74
2022-08-20T14:57:17.601Z,50.03
2022-08-20T14:59:44.720Z,49.59
2022-08-20T15:02:13.825Z,48.97
2022-08-20T15:04:40.969Z,46.98
2022-08-20T15:07:23.203Z,45.57
2022-08-20T15:09:49.626Z,41.68
2022-08-20T15:12:16.015Z,39.14
2022-08-20T15:14:42.427Z,37.70
2022-08-20T15:17:11.270Z,36.40
2022-08-20T15:19:37.727Z,36.95
2022-08-20T15:22:04.225Z,42.06
2022-08-20T15:24:30.773Z,43.32
2022-08-20T15:26:57.186Z,39.29
2022-08-20T15:29:23.686Z,34.69
2022-08-20T15:31:50.892Z,37.07
2022-08-20T15:34:17.600Z,40.40
2022-08-20T15:36:44.397Z,42.14
2022-08-20T15:39:10.888Z,43.57
2022-08-20T15:41:37.237Z,45.43
2022-08-20T15:44:03.841Z,47.08
2022-08-20T15:46:33.556Z,48.60
2022-08-20T15:49:11.271Z,49.17
2022-08-20T15:51:42.415Z,49.99
2022-08-20T15:54:24.868Z,50.35
2022-08-20T15:57:10.986Z,50.65
2022-08-20T16:00:00.174Z,51.49
2022-08-20T16:02:54.838Z,51.22
2022-08-20T16:05:41.326Z,50.76
2022-08-20T16:08:21.951Z,52.28
2022-08-20T16:11:31.182Z,50.90
2022-08-20T16:14:08.431Z,52.12
2022-08-20T16:16:42.526Z,53.18
2022-08-20T16:19:15.272Z,53.23
2022-08-20T16:21:44.622Z,53.68
2022-08-20T16:24:13.734Z,53.13
2022-08-20T16:26:57.791Z,53.46
2022-08-20T16:29:59.288Z,52.31
2022-08-20T16:32:25.601Z,51.87
2022-08-20T16:34:59.187Z,52.72
2022-08-20T16:37:28.635Z,53.26
2022-08-20T16:40:03.968Z,52.90
2022-08-20T16:42:37.271Z,52.38
2022-08-20T16:45:07.226Z,52.84
2022-08-20T16:47:37.846Z,53.35
2022-08-20T16:50:08.213Z,52.24
2022-08-20T16:52:34.589Z,53.63
2022-08-20T16:55:01.034Z,53.99
2022-08-20T16:57:28.655Z,52.91
2022-08-20T16:59:58.879Z,53.84
2022-08-20T17:02:25.969Z,53.91
2022-08-20T17:04:59.004Z,54.53
2022-08-20T17:07:53.302Z,53.53
2022-08-20T17:10:24.564Z,54.06
2022-08-20T17:13:22.349Z,54.31
2022-08-20T17:15:55.872Z,53.93
2022-08-20T17:18:25.573Z,54.42
2022-08-20T17:20:52.824Z,53.71
2022-08-20T17:23:21.183Z,53.64
2022-08-20T17:26:02.845Z,54.12
2022-08-20T17:28:34.524Z,53.95
2022-08-20T17:31:01.721Z,53.37
2022-08-20T17:33:33.822Z,55.07
2022-08-20T17:36:20.048Z,55.36
2022-08-20T17:38:51.643Z,55.48
2022-08-20T17:41:27.074Z,54.39
2022-08-20T17:44:04.673Z,54.91
2022-08-20T17:46:34.480Z,54.31
2022-08-20T17:49:08.553Z,55.10
2022-08-20T17:51:38.934Z,54.27
2022-08-20T17:54:15.761Z,54.43
2022-08-20T17:56:43.882Z,55.51
2022-08-20T17:59:24.098Z,55.15
2022-08-20T18:02:05.645Z,56.03
2022-08-20T18:04:34.836Z,55.87
2022-08-20T18:07:27.779Z,56.50
2022-08-20T18:10:18.327Z,55.67
2022-08-20T18:13:10.258Z,55.70
2022-08-20T18:15:44.037Z,56.77
2022-08-20T18:18:16.561Z,56.96
2022-08-20T18:21:04.758Z,57.24
2022-08-20T18:23:55.651Z,57.12
2022-08-20T18:26:34.367Z,57.15
2022-08-20T18:29:27.523Z,57.06
2022-08-20T18:31:56.664Z,57.12
2022-08-20T18:34:37.944Z,57.13
2022-08-20T18:37:06.573Z,57.86
2022-08-20T18:39:39.735Z,58.21
2022-08-20T18:42:22.629Z,58.74
2022-08-20T18:44:52.668Z,58.07
2022-08-20T18:47:32.279Z,58.34
2022-08-20T18:50:16.764Z,58.82
2022-08-20T18:52:50.235Z,58.87
2022-08-20T18:55:32.593Z,59.30
2022-08-20T18:58:02.568Z,59.49
2022-08-20T19:00:36.266Z,59.82
2022-08-20T19:03:14.361Z,60.23
2022-08-20T19:06:04.079Z,59.61
2022-08-20T19:08:45.331Z,60.36
2022-08-20T19:11:39.928Z,60.80
2022-08-20T19:14:33.189Z,60.56
2022-08-20T19:17:03.683Z,60.83
2022-08-20T19:19:32.993Z,61.23
2022-08-20T19:22:02.199Z,61.27
2022-08-20T19:24:31.443Z,61.96
2022-08-20T19:27:06.896Z,61.22
2022-08-20T19:29:49.039Z,61.83
2022-08-20T19:32:27.813Z,62.22
2022-08-20T19:35:03.868Z,62.42
2022-08-20T19:37:51.570Z,61.98
2022-08-20T19:40:26.508Z,62.67
2022-08-20T19:42:56.442Z,62.48
2022-08-20T19:45:54.282Z,62.29
2022-08-20T19:48:53.197Z,62.46
2022-08-20T19:51:36.965Z,63.25
2022-08-20T19:54:20.586Z,63.45
2022-08-20T19:56:46.942Z,63.24
2022-08-20T19:59:20.889Z,63.64
2022-08-20T20:02:03.143Z,63.55
2022-08-20T20:04:55.359Z,63.75
2022-08-20T20:07:29.831Z,63.70
2022-08-20T20:10:00.862Z,63.78
2022-08-20T20:12:27.616Z,64.68
2022-08-20T20:14:55.186Z,64.76
2022-08-20T20:17:25.892Z,64.61
2022-08-20T20:19:59.123Z,65.06
2022-08-20T20:22:35.978Z,65.07
2022-08-20T20:25:21.355Z,65.06
2022-08-20T20:27:54.806Z,65.02
2022-08-20T20:30:30.008Z,64.99
2022-08-20T20:32:59.078Z,66.06
2022-08-20T20:35:35.014Z,65.77
2022-08-20T20:38:09.240Z,65.83
2022-08-20T20:40:48.771Z,65.84
2022-08-20T20:43:30.486Z,66.59
2022-08-20T20:46:14.100Z,66.61
2022-08-20T20:48:54.417Z,66.60
2022-08-20T20:51:29.026Z,66.74
2022-08-20T20:53:59.458Z,67.12
2022-08-20T20:56:42.956Z,66.80
2022-08-20T20:59:10.875Z,67.20
2022-08-20T21:01:50.177Z,67.04
2022-08-20T21:04:19.949Z,67.66
2022-08-20T21:06:46.976Z,67.73
2022-08-20T21:09:13.852Z,68.20
2022-08-20T21:11:40.753Z,68.44
2022-08-20T21:14:07.723Z,68.96
2022-08-20T21:16:34.412Z,68.92
2022-08-20T21:19:04.610Z,68.73
2022-08-20T21:21:32.030Z,69.21
2022-08-20T21:23:58.536Z,69.25
2022-08-20T21:26:27.836Z,69.11
2022-08-20T21:28:54.837Z,69.28
2022-08-20T21:31:21.932Z,69.63
2022-08-20T21:33:48.723Z,69.81
2022-08-20T21:36:15.482Z,69.91
2022-08-20T21:38:42.459Z,69.93
2022-08-20T21:41:09.310Z,70.08
2022-08-20T21:43:35.748Z,70.19
2022-08-20T21:46:04.064Z,70.04
2022-08-20T21:48:32.378Z,70.46
2022-08-20T21:50:59.032Z,70.54
2022-08-20T21:53:25.797Z,70.56
2022-08-20T21:55:52.626Z,70.50
2022-08-20T21:58:20.488Z,70.47
2022-08-20T22:01:02.133Z,70.49
2022-08-20T22:03:35.071Z,71.14
2022-08-20T22:06:07.622Z,70.84
2022-08-20T22:08:34.898Z,70.61
2022-08-20T22:11:02.540Z,70.84
2022-08-20T22:13:32.626Z,70.60
2022-08-20T22:16:02.002Z,70.59
2022-08-20T22:18:29.180Z,71.05
2022-08-20T22:20:56.247Z,71.20
2022-08-20T22:23:23.655Z,71.28
2022-08-20T22:25:50.742Z,71.83
2022-08-20T22:28:18.105Z,71.21
2022-08-20T22:30:44.934Z,71.30
2022-08-20T22:33:19.903Z,71.22
2022-08-20T22:35:48.749Z,71.48
2022-08-20T22:38:15.848Z,71.43
2022-08-20T22:40:43.330Z,71.44
2022-08-20T22:43:10.157Z,71.13
2022-08-20T22:45:37.303Z,71.37
2022-08-20T22:48:05.778Z,71.36
2022-08-20T22:50:32.741Z,71.23
2022-08-20T22:53:01.745Z,71.66
2022-08-20T22:55:28.549Z,71.17
2022-08-20T22:57:55.101Z,71.09
2022-08-20T23:00:24.135Z,71.57
2022-08-20T23:02:55.847Z,70.95
2022-08-20T23:05:25.568Z,71.32
2022-08-20T23:07:54.531Z,71.38
2022-08-20T23:10:22.754Z,72.11
2022-08-20T23:12:49.394Z,72.00
2022-08-20T23:15:16.192Z,71.17
2022-08-20T23:17:44.030Z,71.48
2022-08-20T23:20:17.155Z,71.09
2022-08-20T23:22:44.031Z,71.24
2022-08-20T23:25:11.878Z,71.50
2022-08-20T23:27:45.862Z,71.60
2022-08-20T23:30:14.026Z,71.55
2022-08-20T23:32:40.984Z,71.56
2022-08-20T23:35:08.976Z,71.34
2022-08-20T23:37:40.233Z,71.33
2022-08-20T23:40:08.992Z,71.17
2022-08-20T23:42:35.898Z,71.46
2022-08-20T23:45:02.901Z,71.43
2022-08-20T23:47:29.672Z,71.20
2022-08-20T23:49:56.870Z,71.49
2022-08-20T23:52:23.962Z,71.49
2022-08-20T23:54:50.792Z,71.75
2022-08-20T23:57:20.909Z,71.46
2022-08-20T23:59:48.152Z,71.74
